sensor_id;sensor_type;location;lat;lon;timestamp;pressure;altitude;pressure_sealevel;temperature;humidity
26807;BME280;14380;49.910;6.792;2023-01-28T00:01:21;99662.09;;;3.11;100.00
26807;BME280;14380;49.910;6.792;2023-01-28T00:03:48;99666.09;;;3.43;100.00
26807;BME280;14380;49.910;6.792;2023-01-28T00:06:16;99661.84;;;3.37;100.00
26807;BME280;14380;49.910;6.792;2023-01-28T00:08:43;99659.22;;;3.36;100.00
26807;BME280;14380;49.910;6.792;2023-01-28T00:11:11;99668.81;;;3.34;100.00
26807;BME280;14380;49.910;6.792;2023-01-28T00:13:38;99665.41;;;3.29;100.00
26807;BME280;14380;49.910;6.792;2023-01-28T00:16:06;99663.56;;;3.37;100.00
26807;BME280;14380;49.910;6.792;2023-01-28T00:18:35;99663.47;;;3.46;100.00
26807;BME280;14380;49.910;6.792;2023-01-28T00:21:04;99667.84;;;3.44;100.00
26807;BME280;14380;49.910;6.792;2023-01-28T00:23:33;99673.19;;;3.32;100.00
26807;BME280;14380;49.910;6.792;2023-01-28T00:26:01;99664.50;;;3.31;100.00
26807;BME280;14380;49.910;6.792;2023-01-28T00:28:28;99678.47;;;3.27;100.00
26807;BME280;14380;49.910;6.792;2023-01-28T00:30:54;99669.75;;;3.28;100.00
26807;BME280;14380;49.910;6.792;2023-01-28T00:33:21;99668.97;;;3.21;100.00
26807;BME280;14380;49.910;6.792;2023-01-28T00:35:57;99662.03;;;3.20;100.00
26807;BME280;14380;49.910;6.792;2023-01-28T00:38:24;99665.53;;;3.15;100.00
26807;BME280;14380;49.910;6.792;2023-01-28T00:40:51;99657.53;;;3.33;100.00
26807;BME280;14380;49.910;6.792;2023-01-28T00:43:17;99662.88;;;3.22;100.00
26807;BME280;14380;49.910;6.792;2023-01-28T00:45:44;99665.34;;;3.32;100.00
26807;BME280;14380;49.910;6.792;2023-01-28T00:48:10;99665.25;;;3.41;100.00
26807;BME280;14380;49.910;6.792;2023-01-28T00:50:37;99667.94;;;3.36;100.00
26807;BME280;14380;49.910;6.792;2023-01-28T00:53:05;99665.38;;;3.30;100.00
26807;BME280;14380;49.910;6.792;2023-01-28T00:55:32;99670.88;;;3.05;100.00
26807;BME280;14380;49.910;6.792;2023-01-28T00:57:58;99664.44;;;3.36;100.00
26807;BME280;14380;49.910;6.792;2023-01-28T01:00:25;99658.34;;;3.37;100.00
26807;BME280;14380;49.910;6.792;2023-01-28T01:02:51;99657.50;;;3.36;100.00
26807;BME280;14380;49.910;6.792;2023-01-28T01:05:18;99668.09;;;3.21;100.00
26807;BME280;14380;49.910;6.792;2023-01-28T01:07:44;99656.41;;;3.54;100.00
26807;BME280;14380;49.910;6.792;2023-01-28T01:10:16;99660.25;;;3.21;100.00
26807;BME280;14380;49.910;6.792;2023-01-28T01:12:45;99662.94;;;3.16;100.00
26807;BME280;14380;49.910;6.792;2023-01-28T01:15:12;99660.25;;;3.22;100.00
26807;BME280;14380;49.910;6.792;2023-01-28T01:17:40;99654.97;;;3.29;100.00
26807;BME280;14380;49.910;6.792;2023-01-28T01:20:11;99665.28;;;3.38;100.00
26807;BME280;14380;49.910;6.792;2023-01-28T01:22:37;99669.00;;;3.17;100.00
26807;BME280;14380;49.910;6.792;2023-01-28T01:25:05;99669.84;;;3.19;100.00
26807;BME280;14380;49.910;6.792;2023-01-28T01:27:35;99666.28;;;3.31;100.00
26807;BME280;14380;49.910;6.792;2023-01-28T01:30:02;99667.09;;;3.33;100.00
26807;BME280;14380;49.910;6.792;2023-01-28T01:32:29;99667.19;;;3.25;100.00
26807;BME280;14380;49.910;6.792;2023-01-28T01:34:55;99668.94;;;3.23;100.00
26807;BME280;14380;49.910;6.792;2023-01-28T01:37:22;99674.00;;;3.37;100.00
26807;BME280;14380;49.910;6.792;2023-01-28T01:39:48;99675.31;;;2.92;100.00
26807;BME280;14380;49.910;6.792;2023-01-28T01:42:15;99682.19;;;3.04;100.00
26807;BME280;14380;49.910;6.792;2023-01-28T01:45:00;99684.09;;;2.85;100.00
26807;BME280;14380;49.910;6.792;2023-01-28T01:47:32;99684.78;;;3.07;100.00
26807;BME280;14380;49.910;6.792;2023-01-28T01:50:02;99682.94;;;3.16;100.00
26807;BME280;14380;49.910;6.792;2023-01-28T01:52:32;99678.47;;;3.29;100.00
26807;BME280;14380;49.910;6.792;2023-01-28T01:55:03;99682.09;;;3.10;100.00
26807;BME280;14380;49.910;6.792;2023-01-28T01:57:33;99678.69;;;3.08;100.00
26807;BME280;14380;49.910;6.792;2023-01-28T02:00:04;99681.41;;;2.91;100.00
26807;BME280;14380;49.910;6.792;2023-01-28T02:02:36;99691.00;;;2.91;100.00
26807;BME280;14380;49.910;6.792;2023-01-28T02:05:04;99686.66;;;2.90;100.00
26807;BME280;14380;49.910;6.792;2023-01-28T02:07:32;99681.34;;;3.01;100.00
26807;BME280;14380;49.910;6.792;2023-01-28T02:09:59;99675.44;;;2.80;100.00
26807;BME280;14380;49.910;6.792;2023-01-28T02:12:29;99683.28;;;2.80;100.00
26807;BME280;14380;49.910;6.792;2023-01-28T02:14:59;99678.88;;;2.85;100.00
26807;BME280;14380;49.910;6.792;2023-01-28T02:17:29;99683.16;;;2.94;100.00
26807;BME280;14380;49.910;6.792;2023-01-28T02:19:58;99683.16;;;2.89;100.00
26807;BME280;14380;49.910;6.792;2023-01-28T02:23:06;99681.25;;;3.10;100.00
26807;BME280;14380;49.910;6.792;2023-01-28T02:28:51;99679.06;;;2.65;100.00
26807;BME280;14380;49.910;6.792;2023-01-28T02:31:23;99669.25;;;2.90;100.00
26807;BME280;14380;49.910;6.792;2023-01-28T02:33:55;99665.03;;;2.80;100.00
26807;BME280;14380;49.910;6.792;2023-01-28T02:36:29;99670.94;;;2.97;100.00
26807;BME280;14380;49.910;6.792;2023-01-28T02:39:01;99670.94;;;2.97;100.00
26807;BME280;14380;49.910;6.792;2023-01-28T02:41:35;99666.59;;;2.96;100.00
26807;BME280;14380;49.910;6.792;2023-01-28T02:44:05;99671.94;;;2.82;100.00
26807;BME280;14380;49.910;6.792;2023-01-28T02:46:34;99662.25;;;2.95;100.00
26807;BME280;14380;49.910;6.792;2023-01-28T02:49:23;99675.25;;;2.98;100.00
26807;BME280;14380;49.910;6.792;2023-01-28T02:52:01;99678.72;;;3.02;100.00
26807;BME280;14380;49.910;6.792;2023-01-28T02:54:36;99681.41;;;2.93;100.00
26807;BME280;14380;49.910;6.792;2023-01-28T02:57:15;99680.66;;;2.78;100.00
26807;BME280;14380;49.910;6.792;2023-01-28T02:59:48;99684.09;;;2.85;100.00
26807;BME280;14380;49.910;6.792;2023-01-28T03:02:22;99685.84;;;2.83;100.00
26807;BME280;14380;49.910;6.792;2023-01-28T03:04:57;99683.19;;;2.91;100.00
26807;BME280;14380;49.910;6.792;2023-01-28T03:07:28;99687.59;;;2.82;100.00
26807;BME280;14380;49.910;6.792;2023-01-28T03:10:00;99683.16;;;2.89;100.00
26807;BME280;14380;49.910;6.792;2023-01-28T03:12:29;99685.69;;;3.02;100.00
26807;BME280;14380;49.910;6.792;2023-01-28T03:15:17;99689.06;;;3.13;100.00
26807;BME280;14380;49.910;6.792;2023-01-28T03:18:05;99689.28;;;2.87;100.00
26807;BME280;14380;49.910;6.792;2023-01-28T03:21:01;99699.81;;;2.79;100.00
26807;BME280;14380;49.910;6.792;2023-01-28T03:23:53;99703.22;;;2.86;100.00
26807;BME280;14380;49.910;6.792;2023-01-28T03:26:44;99701.44;;;2.91;100.00
26807;BME280;14380;49.910;6.792;2023-01-28T03:29:32;99698.63;;;3.09;100.00
26807;BME280;14380;49.910;6.792;2023-01-28T03:32:18;99698.91;;;2.80;100.00
26807;BME280;14380;49.910;6.792;2023-01-28T03:35:03;99694.47;;;2.91;100.00
26807;BME280;14380;49.910;6.792;2023-01-28T03:37:49;99699.78;;;2.77;100.00
26807;BME280;14380;49.910;6.792;2023-01-28T03:40:16;99699.78;;;2.82;100.00
26807;BME280;14380;49.910;6.792;2023-01-28T03:42:43;99710.38;;;2.62;100.00
26807;BME280;14380;49.910;6.792;2023-01-28T03:45:10;99712.69;;;2.94;100.00
26807;BME280;14380;49.910;6.792;2023-01-28T03:47:37;99710.25;;;2.74;100.00
26807;BME280;14380;49.910;6.792;2023-01-28T03:50:05;99714.38;;;3.02;100.00
26807;BME280;14380;49.910;6.792;2023-01-28T03:52:32;99722.44;;;2.72;100.00
26807;BME280;14380;49.910;6.792;2023-01-28T03:54:58;99716.97;;;3.02;100.00
26807;BME280;14380;49.910;6.792;2023-01-28T03:57:26;99714.53;;;2.86;100.00
26807;BME280;14380;49.910;6.792;2023-01-28T03:59:55;99712.59;;;3.07;100.00
26807;BME280;14380;49.910;6.792;2023-01-28T04:02:22;99724.84;;;2.98;100.00
26807;BME280;14380;49.910;6.792;2023-01-28T04:04:52;99717.84;;;3.04;100.00
26807;BME280;14380;49.910;6.792;2023-01-28T04:07:18;99718.09;;;2.71;100.00
26807;BME280;14380;49.910;6.792;2023-01-28T04:09:45;99719.81;;;2.77;100.00
26807;BME280;14380;49.910;6.792;2023-01-28T04:12:11;99729.34;;;2.81;100.00
26807;BME280;14380;49.910;6.792;2023-01-28T04:14:38;99722.28;;;2.91;100.00
26807;BME280;14380;49.910;6.792;2023-01-28T04:17:05;99728.34;;;2.96;100.00
26807;BME280;14380;49.910;6.792;2023-01-28T04:19:35;99722.41;;;2.75;100.00
26807;BME280;14380;49.910;6.792;2023-01-28T04:22:05;99713.53;;;2.96;100.00
26807;BME280;14380;49.910;6.792;2023-01-28T04:24:31;99719.63;;;3.00;100.00
26807;BME280;14380;49.910;6.792;2023-01-28T04:26:58;99722.31;;;2.88;100.00
26807;BME280;14380;49.910;6.792;2023-01-28T04:29:24;99717.97;;;2.88;100.00
26807;BME280;14380;49.910;6.792;2023-01-28T04:31:51;99723.28;;;2.76;100.00
26807;BME280;14380;49.910;6.792;2023-01-28T04:34:17;99727.66;;;2.72;100.00
26807;BME280;14380;49.910;6.792;2023-01-28T04:36:45;99734.50;;;2.86;100.00
26807;BME280;14380;49.910;6.792;2023-01-28T04:39:13;99743.34;;;2.67;100.00
26807;BME280;14380;49.910;6.792;2023-01-28T04:41:39;99731.09;;;2.74;100.00
26807;BME280;14380;49.910;6.792;2023-01-28T04:44:06;99733.69;;;2.82;100.00
26807;BME280;14380;49.910;6.792;2023-01-28T04:46:32;99732.81;;;2.80;100.00
26807;BME280;14380;49.910;6.792;2023-01-28T04:48:58;99735.59;;;2.55;100.00
26807;BME280;14380;49.910;6.792;2023-01-28T04:51:26;99749.31;;;2.82;100.00
26807;BME280;14380;49.910;6.792;2023-01-28T04:53:52;99743.16;;;2.94;100.00
26807;BME280;14380;49.910;6.792;2023-01-28T04:56:20;99746.50;;;3.08;100.00
26807;BME280;14380;49.910;6.792;2023-01-28T04:58:46;99746.56;;;3.01;100.00
26807;BME280;14380;49.910;6.792;2023-01-28T05:01:13;99749.41;;;2.70;100.00
26807;BME280;14380;49.910;6.792;2023-01-28T05:03:39;99750.28;;;2.67;100.00
26807;BME280;14380;49.910;6.792;2023-01-28T05:06:07;99754.53;;;2.80;100.00
26807;BME280;14380;49.910;6.792;2023-01-28T05:08:34;99756.19;;;2.92;100.00
26807;BME280;14380;49.910;6.792;2023-01-28T05:11:01;99755.31;;;2.90;100.00
26807;BME280;14380;49.910;6.792;2023-01-28T05:13:28;99751.78;;;3.01;100.00
26807;BME280;14380;49.910;6.792;2023-01-28T05:15:55;99755.41;;;2.81;100.00
26807;BME280;14380;49.910;6.792;2023-01-28T05:18:21;99758.78;;;2.92;100.00
26807;BME280;14380;49.910;6.792;2023-01-28T05:20:48;99757.19;;;2.76;100.00
26807;BME280;14380;49.910;6.792;2023-01-28T05:23:14;99752.97;;;2.56;100.00
26807;BME280;14380;49.910;6.792;2023-01-28T05:25:41;99757.97;;;2.89;100.00
26807;BME280;14380;49.910;6.792;2023-01-28T05:28:07;99761.53;;;2.75;100.00
26807;BME280;14380;49.910;6.792;2023-01-28T05:30:36;99757.91;;;2.93;100.00
26807;BME280;14380;49.910;6.792;2023-01-28T05:33:03;99761.50;;;2.78;100.00
26807;BME280;14380;49.910;6.792;2023-01-28T05:35:29;99765.00;;;2.76;100.00
26807;BME280;14380;49.910;6.792;2023-01-28T05:37:56;99764.06;;;2.88;100.00
26807;BME280;14380;49.910;6.792;2023-01-28T05:40:22;99766.72;;;2.80;100.00
26807;BME280;14380;49.910;6.792;2023-01-28T05:42:49;99759.72;;;2.87;100.00
26807;BME280;14380;49.910;6.792;2023-01-28T05:45:15;99758.06;;;2.75;100.00
26807;BME280;14380;49.910;6.792;2023-01-28T05:47:43;99760.63;;;2.79;100.00
26807;BME280;14380;49.910;6.792;2023-01-28T05:50:12;99765.00;;;2.76;100.00
26807;BME280;14380;49.910;6.792;2023-01-28T05:52:39;99772.84;;;2.76;100.00
26807;BME280;14380;49.910;6.792;2023-01-28T05:55:06;99770.25;;;2.71;100.00
26807;BME280;14380;49.910;6.792;2023-01-28T05:57:32;99773.66;;;2.79;100.00
26807;BME280;14380;49.910;6.792;2023-01-28T05:59:59;99780.69;;;2.73;100.00
26807;BME280;14380;49.910;6.792;2023-01-28T06:02:25;99782.28;;;2.89;100.00
26807;BME280;14380;49.910;6.792;2023-01-28T06:04:53;99782.56;;;2.50;100.00
26807;BME280;14380;49.910;6.792;2023-01-28T06:07:20;99792.13;;;2.44;100.00
26807;BME280;14380;49.910;6.792;2023-01-28T06:09:48;99783.28;;;2.76;100.00
26807;BME280;14380;49.910;6.792;2023-01-28T06:12:14;99789.38;;;2.70;100.00
26807;BME280;14380;49.910;6.792;2023-01-28T06:14:41;99784.94;;;2.86;100.00
26807;BME280;14380;49.910;6.792;2023-01-28T06:17:07;99789.34;;;2.76;100.00
26807;BME280;14380;49.910;6.792;2023-01-28T06:19:34;99783.31;;;2.68;100.00
26807;BME280;14380;49.910;6.792;2023-01-28T06:22:02;99783.22;;;2.80;100.00
26807;BME280;14380;49.910;6.792;2023-01-28T06:24:28;99785.06;;;2.64;100.00
26807;BME280;14380;49.910;6.792;2023-01-28T06:26:54;99798.09;;;2.64;100.00
26807;BME280;14380;49.910;6.792;2023-01-28T06:29:21;99789.53;;;2.44;100.00
26807;BME280;14380;49.910;6.792;2023-01-28T06:31:47;99795.53;;;2.58;100.00
26807;BME280;14380;49.910;6.792;2023-01-28T06:34:15;99802.41;;;2.72;100.00
26807;BME280;14380;49.910;6.792;2023-01-28T06:36:41;99808.56;;;2.61;100.00
26807;BME280;14380;49.910;6.792;2023-01-28T06:39:09;99805.94;;;2.64;100.00
26807;BME280;14380;49.910;6.792;2023-01-28T06:41:36;99805.09;;;2.59;100.00
26807;BME280;14380;49.910;6.792;2023-01-28T06:44:03;99809.41;;;2.65;100.00
26807;BME280;14380;49.910;6.792;2023-01-28T06:46:29;99804.16;;;2.73;100.00
26807;BME280;14380;49.910;6.792;2023-01-28T06:48:56;99811.97;;;2.68;100.00
26807;BME280;14380;49.910;6.792;2023-01-28T06:51:22;99814.63;;;2.66;100.00
26807;BME280;14380;49.910;6.792;2023-01-28T06:53:49;99813.72;;;2.71;100.00
26807;BME280;14380;49.910;6.792;2023-01-28T06:56:16;99817.25;;;2.63;100.00
26807;BME280;14380;49.910;6.792;2023-01-28T06:58:43;99818.06;;;2.68;100.00
26807;BME280;14380;49.910;6.792;2023-01-28T07:01:09;99819.00;;;2.63;100.00
26807;BME280;14380;49.910;6.792;2023-01-28T07:03:36;99823.38;;;2.50;100.00
26807;BME280;14380;49.910;6.792;2023-01-28T07:06:03;99833.91;;;2.23;100.00
26807;BME280;14380;49.910;6.792;2023-01-28T07:08:29;99836.38;;;2.59;100.00
26807;BME280;14380;49.910;6.792;2023-01-28T07:10:56;99833.06;;;2.26;100.00
26807;BME280;14380;49.910;6.792;2023-01-28T07:13:24;99834.72;;;2.41;100.00
26807;BME280;14380;49.910;6.792;2023-01-28T07:15:50;99836.50;;;2.37;100.00
26807;BME280;14380;49.910;6.792;2023-01-28T07:18:16;99844.28;;;2.39;100.00
26807;BME280;14380;49.910;6.792;2023-01-28T07:20:43;99852.19;;;2.20;100.00
26807;BME280;14380;49.910;6.792;2023-01-28T07:23:10;99847.00;;;2.17;100.00
26807;BME280;14380;49.910;6.792;2023-01-28T07:25:36;99852.16;;;2.28;100.00
26807;BME280;14380;49.910;6.792;2023-01-28T07:28:06;99857.41;;;2.19;100.00
26807;BME280;14380;49.910;6.792;2023-01-28T07:30:33;99853.88;;;2.25;100.00
26807;BME280;14380;49.910;6.792;2023-01-28T07:33:00;99852.22;;;2.05;100.00
26807;BME280;14380;49.910;6.792;2023-01-28T07:35:27;99852.28;;;1.80;100.00
26807;BME280;14380;49.910;6.792;2023-01-28T07:37:54;99860.91;;;2.13;100.00
26807;BME280;14380;49.910;6.792;2023-01-28T07:40:22;99867.81;;;2.22;100.00
26807;BME280;14380;49.910;6.792;2023-01-28T07:42:49;99864.34;;;2.17;100.00
26807;BME280;14380;49.910;6.792;2023-01-28T07:45:15;99865.25;;;2.06;100.00
26807;BME280;14380;49.910;6.792;2023-01-28T07:47:43;99865.22;;;2.17;100.00
26807;BME280;14380;49.910;6.792;2023-01-28T07:50:10;99865.22;;;2.16;100.00
26807;BME280;14380;49.910;6.792;2023-01-28T07:52:37;99867.81;;;2.16;100.00
26807;BME280;14380;49.910;6.792;2023-01-28T07:55:09;99872.13;;;2.25;100.00
26807;BME280;14380;49.910;6.792;2023-01-28T07:57:35;99857.44;;;2.05;100.00
26807;BME280;14380;49.910;6.792;2023-01-28T08:00:02;99854.75;;;2.27;100.00
26807;BME280;14380;49.910;6.792;2023-01-28T08:02:29;99853.91;;;2.26;100.00
26807;BME280;14380;49.910;6.792;2023-01-28T08:04:57;99856.44;;;2.43;100.00
26807;BME280;14380;49.910;6.792;2023-01-28T08:07:26;99861.69;;;2.38;100.00
26807;BME280;14380;49.910;6.792;2023-01-28T08:09:53;99854.75;;;2.23;100.00
26807;BME280;14380;49.910;6.792;2023-01-28T08:12:19;99857.34;;;2.37;100.00
26807;BME280;14380;49.910;6.792;2023-01-28T08:14:46;99858.25;;;2.27;100.00
26807;BME280;14380;49.910;6.792;2023-01-28T08:17:12;99863.44;;;2.27;100.00
26807;BME280;14380;49.910;6.792;2023-01-28T08:19:39;99859.03;;;2.43;100.00
26807;BME280;14380;49.910;6.792;2023-01-28T08:22:06;99853.78;;;2.54;100.00
26807;BME280;14380;49.910;6.792;2023-01-28T08:24:33;99858.06;;;2.67;100.00
26807;BME280;14380;49.910;6.792;2023-01-28T08:26:59;99853.66;;;2.77;100.00
26807;BME280;14380;49.910;6.792;2023-01-28T08:29:26;99859.88;;;2.55;100.00
26807;BME280;14380;49.910;6.792;2023-01-28T08:31:52;99859.81;;;2.65;100.00
26807;BME280;14380;49.910;6.792;2023-01-28T08:34:19;99859.75;;;2.76;100.00
26807;BME280;14380;49.910;6.792;2023-01-28T08:36:45;99870.19;;;2.78;100.00
26807;BME280;14380;49.910;6.792;2023-01-28T08:39:13;99866.81;;;2.57;100.00
26807;BME280;14380;49.910;6.792;2023-01-28T08:41:40;99871.94;;;2.76;100.00
26807;BME280;14380;49.910;6.792;2023-01-28T08:44:06;99872.00;;;2.62;100.00
26807;BME280;14380;49.910;6.792;2023-01-28T08:46:32;99872.88;;;2.56;100.00
26807;BME280;14380;49.910;6.792;2023-01-28T08:48:59;99877.22;;;2.62;100.00
26807;BME280;14380;49.910;6.792;2023-01-28T08:51:25;99873.81;;;2.41;100.00
26807;BME280;14380;49.910;6.792;2023-01-28T08:53:52;99874.63;;;2.59;100.00
26807;BME280;14380;49.910;6.792;2023-01-28T08:56:20;99878.94;;;2.64;100.00
26807;BME280;14380;49.910;6.792;2023-01-28T08:58:46;99880.78;;;2.41;100.00
26807;BME280;14380;49.910;6.792;2023-01-28T09:01:12;99887.63;;;2.63;100.00
26807;BME280;14380;49.910;6.792;2023-01-28T09:03:39;99883.34;;;2.47;100.00
26807;BME280;14380;49.910;6.792;2023-01-28T09:06:06;99878.97;;;2.52;100.00
26807;BME280;14380;49.910;6.792;2023-01-28T09:08:32;99891.22;;;2.37;100.00
26807;BME280;14380;49.910;6.792;2023-01-28T09:10:59;99889.44;;;2.47;100.00
26807;BME280;14380;49.910;6.792;2023-01-28T09:13:27;99891.09;;;2.68;100.00
26807;BME280;14380;49.910;6.792;2023-01-28T09:15:54;99887.56;;;2.77;100.00
26807;BME280;14380;49.910;6.792;2023-01-28T09:18:20;99887.69;;;2.52;100.00
26807;BME280;14380;49.910;6.792;2023-01-28T09:20:47;99894.56;;;2.67;100.00
26807;BME280;14380;49.910;6.792;2023-01-28T09:23:14;99892.81;;;2.73;100.00
26807;BME280;14380;49.910;6.792;2023-01-28T09:25:40;99908.50;;;2.60;100.00
26807;BME280;14380;49.910;6.792;2023-01-28T09:28:07;99920.75;;;2.26;100.00
26807;BME280;14380;49.910;6.792;2023-01-28T09:30:35;99912.06;;;2.41;100.00
26807;BME280;14380;49.910;6.792;2023-01-28T09:33:02;99912.91;;;2.50;100.00
26807;BME280;14380;49.910;6.792;2023-01-28T09:35:28;99916.34;;;2.57;100.00
26807;BME280;14380;49.910;6.792;2023-01-28T09:37:58;99910.25;;;2.60;100.00
26807;BME280;14380;49.910;6.792;2023-01-28T09:40:32;99920.63;;;2.72;100.00
26807;BME280;14380;49.910;6.792;2023-01-28T09:43:17;99917.25;;;2.45;100.00
26807;BME280;14380;49.910;6.792;2023-01-28T09:45:52;99918.06;;;2.58;100.00
26807;BME280;14380;49.910;6.792;2023-01-28T09:48:27;99923.22;;;2.80;100.00
26807;BME280;14380;49.910;6.792;2023-01-28T09:50:56;99931.91;;;2.71;100.00
26807;BME280;14380;49.910;6.792;2023-01-28T09:53:28;99926.69;;;2.82;100.00
26807;BME280;14380;49.910;6.792;2023-01-28T09:56:00;99927.59;;;2.67;100.00
26807;BME280;14380;49.910;6.792;2023-01-28T09:58:27;99935.44;;;2.59;100.00
26807;BME280;14380;49.910;6.792;2023-01-28T10:00:59;99939.81;;;2.52;100.00
26807;BME280;14380;49.910;6.792;2023-01-28T10:03:44;99939.72;;;2.74;100.00
26807;BME280;14380;49.910;6.792;2023-01-28T10:06:24;99938.06;;;2.61;100.00
26807;BME280;14380;49.910;6.792;2023-01-28T10:09:05;99939.00;;;2.36;100.00
26807;BME280;14380;49.910;6.792;2023-01-28T10:11:50;99944.16;;;2.53;100.00
26807;BME280;14380;49.910;6.792;2023-01-28T10:14:27;99946.75;;;2.60;100.00
26807;BME280;14380;49.910;6.792;2023-01-28T10:17:06;99942.47;;;2.31;100.00
26807;BME280;14380;49.910;6.792;2023-01-28T10:19:37;99945.09;;;2.23;100.00
26807;BME280;14380;49.910;6.792;2023-01-28T10:22:11;99951.09;;;2.56;100.00
26807;BME280;14380;49.910;6.792;2023-01-28T10:24:40;99951.09;;;2.59;100.00
26807;BME280;14380;49.910;6.792;2023-01-28T10:27:11;99946.69;;;2.75;100.00
26807;BME280;14380;49.910;6.792;2023-01-28T10:29:40;99952.84;;;2.57;100.00
26807;BME280;14380;49.910;6.792;2023-01-28T10:32:16;99951.94;;;2.64;100.00
26807;BME280;14380;49.910;6.792;2023-01-28T10:34:47;99952.03;;;2.35;100.00
26807;BME280;14380;49.910;6.792;2023-01-28T10:37:15;99948.59;;;2.11;100.00
26807;BME280;14380;49.910;6.792;2023-01-28T10:39:41;99952.84;;;2.59;100.00
26807;BME280;14380;49.910;6.792;2023-01-28T10:42:16;99959.88;;;2.21;100.00
26807;BME280;14380;49.910;6.792;2023-01-28T10:44:46;99954.66;;;2.15;100.00
26807;BME280;14380;49.910;6.792;2023-01-28T10:47:21;99946.78;;;2.44;100.00
26807;BME280;14380;49.910;6.792;2023-01-28T10:49:50;99957.25;;;2.40;100.00
26807;BME280;14380;49.910;6.792;2023-01-28T10:52:18;99951.16;;;2.36;100.00
26807;BME280;14380;49.910;6.792;2023-01-28T10:54:44;99945.03;;;2.52;100.00
26807;BME280;14380;49.910;6.792;2023-01-28T10:57:13;99942.34;;;2.74;100.00
26807;BME280;14380;49.910;6.792;2023-01-28T10:59:41;99955.41;;;2.68;100.00
26807;BME280;14380;49.910;6.792;2023-01-28T11:02:25;99943.19;;;2.84;100.00
26807;BME280;14380;49.910;6.792;2023-01-28T11:05:05;99952.59;;;3.16;100.00
26807;BME280;14380;49.910;6.792;2023-01-28T11:07:32;99950.09;;;2.91;100.00
26807;BME280;14380;49.910;6.792;2023-01-28T11:09:59;99955.38;;;2.77;100.00
26807;BME280;14380;49.910;6.792;2023-01-28T11:12:27;99963.19;;;2.82;100.00
26807;BME280;14380;49.910;6.792;2023-01-28T11:14:55;99956.16;;;3.01;100.00
26807;BME280;14380;49.910;6.792;2023-01-28T11:17:25;99964.84;;;2.95;100.00
26807;BME280;14380;49.910;6.792;2023-01-28T11:19:52;99963.13;;;2.93;100.00
26807;BME280;14380;49.910;6.792;2023-01-28T11:22:23;99953.50;;;3.03;100.00
26807;BME280;14380;49.910;6.792;2023-01-28T11:24:52;99947.41;;;3.10;100.00
26807;BME280;14380;49.910;6.792;2023-01-28T11:27:24;99949.97;;;3.15;100.00
26807;BME280;14380;49.910;6.792;2023-01-28T11:29:54;99946.56;;;3.05;100.00
26807;BME280;14380;49.910;6.792;2023-01-28T11:32:25;99940.44;;;3.09;100.00
26807;BME280;14380;49.910;6.792;2023-01-28T11:34:53;99938.81;;;2.88;100.00
26807;BME280;14380;49.910;6.792;2023-01-28T11:37:22;99949.94;;;3.21;100.00
26807;BME280;14380;49.910;6.792;2023-01-28T11:40:00;99942.97;;;3.27;100.00
26807;BME280;14380;49.910;6.792;2023-01-28T11:42:26;99947.38;;;3.16;100.00
26807;BME280;14380;49.910;6.792;2023-01-28T11:44:53;99937.06;;;2.88;100.00
26807;BME280;14380;49.910;6.792;2023-01-28T11:47:36;99945.66;;;3.12;100.00
26807;BME280;14380;49.910;6.792;2023-01-28T11:50:24;99936.19;;;2.94;100.00
26807;BME280;14380;49.910;6.792;2023-01-28T11:53:12;99924.81;;;3.03;97.88
26807;BME280;14380;49.910;6.792;2023-01-28T11:55:49;99935.22;;;3.12;100.00
26807;BME280;14380;49.910;6.792;2023-01-28T11:58:21;99925.69;;;3.03;100.00
26807;BME280;14380;49.910;6.792;2023-01-28T12:00:54;99925.72;;;2.97;97.17
26807;BME280;14380;49.910;6.792;2023-01-28T12:03:43;99934.59;;;2.57;93.06
26807;BME280;14380;49.910;6.792;2023-01-28T12:06:41;99927.47;;;2.96;95.82
26807;BME280;14380;49.910;6.792;2023-01-28T12:09:18;99921.38;;;2.99;95.32
26807;BME280;14380;49.910;6.792;2023-01-28T12:11:53;99913.63;;;2.85;93.17
26807;BME280;14380;49.910;6.792;2023-01-28T12:14:55;99919.63;;;2.93;88.99
26807;BME280;14380;49.910;6.792;2023-01-28T12:17:29;99913.50;;;3.08;91.59
26807;BME280;14380;49.910;6.792;2023-01-28T12:20:12;99914.41;;;2.96;86.85
26807;BME280;14380;49.910;6.792;2023-01-28T12:22:55;99905.59;;;3.18;91.13
26807;BME280;14380;49.910;6.792;2023-01-28T12:25:34;99909.06;;;3.20;89.96
26807;BME280;14380;49.910;6.792;2023-01-28T12:28:07;99910.16;;;2.78;87.38
26807;BME280;14380;49.910;6.792;2023-01-28T12:30:46;99908.28;;;3.04;88.48
26807;BME280;14380;49.910;6.792;2023-01-28T12:33:35;99901.34;;;3.01;89.79
26807;BME280;14380;49.910;6.792;2023-01-28T12:36:18;99906.41;;;3.26;90.19
26807;BME280;14380;49.910;6.792;2023-01-28T12:39:02;99902.09;;;3.22;89.57
26807;BME280;14380;49.910;6.792;2023-01-28T12:41:35;99903.91;;;3.12;89.42
26807;BME280;14380;49.910;6.792;2023-01-28T12:44:04;99899.28;;;3.48;89.74
26807;BME280;14380;49.910;6.792;2023-01-28T12:46:37;99892.44;;;3.32;89.68
26807;BME280;14380;49.910;6.792;2023-01-28T12:49:10;99898.75;;;2.96;89.15
26807;BME280;14380;49.910;6.792;2023-01-28T12:51:46;99903.81;;;3.24;91.25
26807;BME280;14380;49.910;6.792;2023-01-28T12:54:15;99902.22;;;3.03;89.26
26807;BME280;14380;49.910;6.792;2023-01-28T12:56:45;99906.72;;;2.68;89.18
26807;BME280;14380;49.910;6.792;2023-01-28T12:59:17;99902.44;;;2.63;90.47
26807;BME280;14380;49.910;6.792;2023-01-28T13:01:53;99912.66;;;3.03;91.71
26807;BME280;14380;49.910;6.792;2023-01-28T13:04:30;99917.88;;;3.02;87.81
26807;BME280;14380;49.910;6.792;2023-01-28T13:07:02;99914.38;;;3.07;87.57
26807;BME280;14380;49.910;6.792;2023-01-28T13:09:34;99909.13;;;3.12;89.28
26807;BME280;14380;49.910;6.792;2023-01-28T13:12:03;99906.66;;;2.86;87.89
26807;BME280;14380;49.910;6.792;2023-01-28T13:14:32;99905.75;;;2.90;85.68
26807;BME280;14380;49.910;6.792;2023-01-28T13:17:08;99913.50;;;3.07;89.11
26807;BME280;14380;49.910;6.792;2023-01-28T13:19:41;99903.13;;;2.96;88.91
26807;BME280;14380;49.910;6.792;2023-01-28T13:22:27;99914.47;;;2.86;87.68